Time;durP1;ratioP1;P1;durP2;ratioP2;P2;SDS_P1;SDS_P2;PMS_P1;PMS_P2;Temp;Humidity;BMP_temperature;BMP_pressure;BME280_temperature;BME280_humidity;BME280_pressure;Samples;Min_cycle;Max_cycle;Signal;HPM_P1;HPM_P2
2021/12/27 00:00:11;;;;;;;5.90;3.58;;;;;;;5.33;100.00;94515.59;5124626;27;20037;-72
2021/12/27 00:02:39;;;;;;;12.63;3.90;;;;;;;5.25;100.00;94524.38;5108637;27;20126;-72
2021/12/27 00:05:07;;;;;;;7.18;3.55;;;;;;;5.37;100.00;94534.84;5106199;27;20036;-72
2021/12/27 00:07:34;;;;;;;9.82;3.75;;;;;;;5.33;100.00;94546.56;5109894;27;20405;-72
2021/12/27 00:10:01;;;;;;;6.25;3.33;;;;;;;5.42;100.00;94524.72;5110170;27;20066;-73
2021/12/27 00:12:28;;;;;;;5.75;3.10;;;;;;;5.49;100.00;94525.47;5110037;27;20504;-73
2021/12/27 00:14:55;;;;;;;6.63;3.55;;;;;;;5.48;100.00;94534.19;5115806;27;20497;-73
2021/12/27 00:17:22;;;;;;;7.95;4.15;;;;;;;5.48;100.00;94536.78;5110164;27;20043;-73
2021/12/27 00:19:49;;;;;;;6.03;3.80;;;;;;;5.41;100.00;94523.09;5107304;27;20035;-73
2021/12/27 00:22:16;;;;;;;8.50;2.50;;;;;;;5.60;100.00;94531.78;5108763;27;20049;-73
2021/12/27 00:24:46;;;;;;;5.63;3.22;;;;;;;5.76;100.00;94527.88;5106651;28;20043;-73
2021/12/27 00:27:15;;;;;;;6.55;3.70;;;;;;;5.90;100.00;94531.19;5117707;27;20051;-73
2021/12/27 00:29:43;;;;;;;7.68;3.53;;;;;;;5.87;100.00;94521.25;5106939;27;20035;-73
2021/12/27 00:32:09;;;;;;;6.43;2.95;;;;;;;5.87;100.00;94537.56;5122627;27;20505;-72
2021/12/27 00:34:37;;;;;;;8.68;3.60;;;;;;;5.93;100.00;94533.38;5123951;27;20040;-73
2021/12/27 00:37:06;;;;;;;7.65;3.80;;;;;;;5.99;100.00;94536.94;5108236;27;20035;-73
2021/12/27 00:39:33;;;;;;;7.40;3.75;;;;;;;6.02;100.00;94533.94;5105518;27;20038;-72
2021/12/27 00:42:01;;;;;;;14.93;4.15;;;;;;;5.97;100.00;94542.31;5119979;27;20035;-73
2021/12/27 00:44:28;;;;;;;5.10;3.58;;;;;;;5.99;100.00;94534.34;5104177;28;20425;-73
2021/12/27 00:46:55;;;;;;;5.78;3.53;;;;;;;6.10;100.00;94547.41;5118381;27;20039;-73
2021/12/27 00:49:22;;;;;;;5.32;3.05;;;;;;;6.24;100.00;94553.25;5118851;27;20047;-73
2021/12/27 00:51:49;;;;;;;20.90;7.97;;;;;;;6.22;100.00;94534.56;5125335;27;20055;-73
2021/12/27 00:54:17;;;;;;;21.00;8.00;;;;;;;6.38;100.00;94560.94;5109813;28;20043;-73
2021/12/27 00:56:44;;;;;;;11.95;5.38;;;;;;;6.46;99.73;94560.66;5120630;27;20107;-72
2021/12/27 00:59:11;;;;;;;14.98;6.55;;;;;;;6.50;98.97;94562.63;5115333;27;20046;-72
2021/12/27 01:01:39;;;;;;;5.53;3.53;;;;;;;6.46;98.70;94563.25;5125152;27;20393;-73
2021/12/27 01:04:07;;;;;;;10.73;3.50;;;;;;;6.27;99.74;94562.41;5118724;28;20047;-73
2021/12/27 01:06:34;;;;;;;7.60;3.55;;;;;;;6.15;100.00;94564.88;5112293;28;20439;-73
2021/12/27 01:09:01;;;;;;;6.50;3.60;;;;;;;6.17;100.00;94557.69;5119591;28;20039;-73
2021/12/27 01:11:40;;;;;;;6.05;3.50;;;;;;;6.06;100.00;94560.94;5105149;28;20047;-71
2021/12/27 01:14:27;;;;;;;10.57;4.28;;;;;;;6.05;100.00;94560.16;5121527;28;20043;-71
2021/12/27 01:16:54;;;;;;;4.75;3.38;;;;;;;6.24;100.00;94566.19;5112157;27;20041;-71
2021/12/27 01:19:21;;;;;;;7.22;3.60;;;;;;;6.34;100.00;94563.16;5115784;27;20412;-71
2021/12/27 01:21:48;;;;;;;8.55;3.78;;;;;;;6.11;100.00;94548.97;5114873;27;20050;-71
2021/12/27 01:24:15;;;;;;;6.43;4.13;;;;;;;6.08;100.00;94548.59;5109103;28;20035;-71
2021/12/27 01:26:42;;;;;;;6.20;3.90;;;;;;;6.01;100.00;94543.47;5120967;27;20047;-71
2021/12/27 01:29:09;;;;;;;5.60;3.75;;;;;;;5.87;100.00;94532.41;5129889;27;20035;-71
2021/12/27 01:31:36;;;;;;;7.65;4.03;;;;;;;5.99;100.00;94555.03;5120435;27;20045;-71
2021/12/27 01:34:03;;;;;;;7.13;4.10;;;;;;;5.98;100.00;94553.44;5115742;27;20539;-71
2021/12/27 01:36:33;;;;;;;9.20;4.53;;;;;;;5.93;100.00;94554.81;5122811;27;20413;-71
2021/12/27 01:39:02;;;;;;;8.07;4.03;;;;;;;5.74;100.00;94537.63;5109000;27;20040;-71
2021/12/27 01:41:30;;;;;;;7.55;3.78;;;;;;;5.54;100.00;94537.75;5122789;27;20035;-71
2021/12/27 01:43:57;;;;;;;6.75;3.42;;;;;;;5.58;100.00;94538.13;5120546;27;20398;-71
2021/12/27 01:46:26;;;;;;;10.63;4.63;;;;;;;5.41;100.00;94528.28;5119668;27;20427;-72
2021/12/27 01:48:55;;;;;;;10.68;3.35;;;;;;;5.35;100.00;94513.59;5128912;27;20039;-71
2021/12/27 01:51:30;;;;;;;5.07;3.00;;;;;;;5.38;100.00;94518.34;5107606;28;20139;-71
2021/12/27 01:53:58;;;;;;;6.53;3.42;;;;;;;5.35;100.00;94508.44;5127621;27;20044;-71
2021/12/27 01:56:26;;;;;;;9.02;4.53;;;;;;;5.30;100.00;94505.69;5128955;27;20043;-72
2021/12/27 01:58:55;;;;;;;6.95;3.63;;;;;;;5.28;100.00;94507.69;5112606;27;20046;-72
2021/12/27 02:01:23;;;;;;;5.80;3.30;;;;;;;5.32;100.00;94514.00;5112860;27;20115;-72
2021/12/27 02:03:53;;;;;;;5.05;3.03;;;;;;;5.48;100.00;94526.44;5108867;27;20510;-72
2021/12/27 02:06:20;;;;;;;8.88;3.85;;;;;;;5.55;100.00;94519.47;5108699;28;20501;-72
2021/12/27 02:08:47;;;;;;;9.45;3.40;;;;;;;5.69;100.00;94521.97;5118007;27;20398;-72
2021/12/27 02:11:16;;;;;;;6.68;3.53;;;;;;;5.52;100.00;94519.88;5128571;27;20076;-71
2021/12/27 02:13:45;;;;;;;7.45;3.63;;;;;;;5.48;100.00;94518.69;5115823;27;20047;-72
2021/12/27 02:16:18;;;;;;;8.65;3.42;;;;;;;5.49;100.00;94503.97;5113288;27;20044;-71
2021/12/27 02:18:45;;;;;;;6.35;3.80;;;;;;;5.41;100.00;94512.78;5121637;27;20114;-71
2021/12/27 02:21:12;;;;;;;9.50;3.78;;;;;;;5.49;100.00;94525.47;5125962;27;20497;-71
2021/12/27 02:23:41;;;;;;;7.70;3.30;;;;;;;5.57;100.00;94521.06;5112340;27;20065;-72
2021/12/27 02:26:09;;;;;;;9.95;4.65;;;;;;;5.68;100.00;94517.81;5102130;27;20036;-72
2021/12/27 02:28:37;;;;;;;11.98;4.97;;;;;;;5.71;100.00;94522.56;5126686;27;20035;-71
2021/12/27 02:31:04;;;;;;;5.55;3.38;;;;;;;5.74;100.00;94501.47;5127654;27;20042;-71
2021/12/27 02:33:31;;;;;;;8.57;4.43;;;;;;;5.97;100.00;94507.91;5111903;27;20050;-72
2021/12/27 02:35:59;;;;;;;6.47;4.32;;;;;;;5.97;100.00;94505.34;5127879;27;20031;-71
2021/12/27 02:38:33;;;;;;;6.38;3.95;;;;;;;5.46;100.00;94505.22;5120475;27;20049;-71
2021/12/27 02:41:01;;;;;;;5.85;3.70;;;;;;;5.31;100.00;94491.75;5114451;27;20050;-71
2021/12/27 02:43:30;;;;;;;7.72;3.85;;;;;;;5.12;100.00;94499.38;5107048;28;20035;-72
2021/12/27 02:46:00;;;;;;;7.07;3.60;;;;;;;4.93;100.00;94490.75;5107329;28;20039;-72
2021/12/27 02:48:31;;;;;;;8.88;3.80;;;;;;;4.85;100.00;94508.22;5110448;27;20032;-71
2021/12/27 02:50:59;;;;;;;6.88;4.07;;;;;;;4.84;100.00;94496.31;5120073;27;20037;-71
2021/12/27 02:53:28;;;;;;;7.47;4.45;;;;;;;4.85;100.00;94497.91;5126715;27;20046;-72
2021/12/27 02:55:57;;;;;;;10.85;4.63;;;;;;;4.74;100.00;94487.22;5120240;27;20050;-71
2021/12/27 02:58:25;;;;;;;6.35;3.65;;;;;;;4.78;100.00;94498.69;5114920;27;20040;-72
2021/12/27 03:00:56;;;;;;;10.52;4.10;;;;;;;4.90;100.00;94492.94;5109579;27;20058;-72
2021/12/27 03:03:23;;;;;;;9.07;4.07;;;;;;;5.07;100.00;94491.47;5126859;27;20096;-72
2021/12/27 03:05:50;;;;;;;8.23;4.50;;;;;;;5.03;100.00;94485.13;5110014;27;20031;-72
2021/12/27 03:08:19;;;;;;;7.60;4.28;;;;;;;5.22;100.00;94475.72;5107222;28;20035;-71
2021/12/27 03:10:49;;;;;;;6.95;4.38;;;;;;;5.31;100.00;94471.09;5116675;27;20043;-72
2021/12/27 03:13:22;;;;;;;9.57;4.25;;;;;;;5.10;100.00;94475.56;5112656;27;20039;-72
2021/12/27 03:15:51;;;;;;;8.15;4.65;;;;;;;5.23;100.00;94458.44;5119671;27;20039;-71
2021/12/27 03:18:18;;;;;;;8.30;3.95;;;;;;;5.24;100.00;94466.00;5108285;27;20576;-72
2021/12/27 03:20:46;;;;;;;6.78;4.50;;;;;;;5.14;100.00;94463.03;5111181;27;20408;-72
2021/12/27 03:23:14;;;;;;;6.38;3.40;;;;;;;5.23;100.00;94448.13;5109579;27;20039;-71
2021/12/27 03:25:41;;;;;;;8.43;4.43;;;;;;;5.50;100.00;94475.38;5106793;28;20043;-72
2021/12/27 03:28:09;;;;;;;10.27;3.42;;;;;;;5.36;100.00;94471.28;5121559;27;20040;-72
2021/12/27 03:30:37;;;;;;;6.07;3.20;;;;;;;5.38;100.00;94466.69;5106981;28;20039;-72
2021/12/27 03:33:08;;;;;;;9.35;4.07;;;;;;;5.26;100.00;94473.53;5108230;27;20036;-72
2021/12/27 03:35:36;;;;;;;6.88;3.55;;;;;;;5.27;100.00;94464.78;5097928;27;20047;-72
2021/12/27 03:38:07;;;;;;;9.18;5.35;;;;;;;5.33;100.00;94458.78;5088146;28;20477;-71
2021/12/27 03:40:36;;;;;;;7.68;3.72;;;;;;;5.33;100.00;94464.75;5116684;27;20141;-71
2021/12/27 03:43:04;;;;;;;10.20;3.75;;;;;;;5.31;100.00;94465.94;5105689;28;20504;-72
2021/12/27 03:45:37;;;;;;;6.10;2.63;;;;;;;5.36;100.00;94458.38;5109773;27;20501;-72
2021/12/27 03:48:06;;;;;;;8.27;3.05;;;;;;;5.50;100.00;94454.72;5111150;27;20561;-71
2021/12/27 03:50:33;;;;;;;6.18;3.83;;;;;;;5.39;100.00;94463.13;5110191;27;20540;-72
2021/12/27 03:53:01;;;;;;;7.47;3.40;;;;;;;5.29;100.00;94457.59;5117763;27;20049;-71
2021/12/27 03:55:28;;;;;;;7.75;3.35;;;;;;;5.40;100.00;94449.19;5122199;27;20046;-71
2021/12/27 03:58:06;;;;;;;6.85;2.92;;;;;;;5.35;100.00;94439.50;5126460;27;20088;-72
2021/12/27 04:00:48;;;;;;;10.57;3.80;;;;;;;5.28;100.00;94461.22;5124754;27;20031;-72
2021/12/27 04:03:16;;;;;;;6.82;3.88;;;;;;;5.22;100.00;94441.34;5111577;27;20546;-71
2021/12/27 04:05:44;;;;;;;9.43;3.75;;;;;;;5.37;100.00;94441.88;5104757;28;20047;-71
2021/12/27 04:08:12;;;;;;;8.05;3.92;;;;;;;5.30;100.00;94452.25;5089607;28;20046;-72
2021/12/27 04:10:41;;;;;;;8.85;3.72;;;;;;;5.29;100.00;94465.34;5112472;27;20031;-71
2021/12/27 04:13:10;;;;;;;6.93;3.78;;;;;;;5.35;100.00;94456.78;5112974;27;20424;-71
2021/12/27 04:15:38;;;;;;;5.85;3.40;;;;;;;5.44;100.00;94465.06;5110126;27;20046;-71
2021/12/27 04:18:09;;;;;;;8.75;3.33;;;;;;;5.13;100.00;94459.69;5106009;28;20055;-71
2021/12/27 04:20:36;;;;;;;6.05;3.35;;;;;;;5.22;100.00;94446.53;5108982;27;20042;-72
2021/12/27 04:23:03;;;;;;;6.95;2.88;;;;;;;4.94;100.00;94434.75;5118635;27;20039;-71
2021/12/27 04:25:30;;;;;;;10.02;3.42;;;;;;;5.33;100.00;94469.09;5125467;27;20045;-71
2021/12/27 04:27:58;;;;;;;6.85;2.95;;;;;;;5.46;100.00;94448.38;5125041;27;20059;-72
2021/12/27 04:30:25;;;;;;;6.13;3.83;;;;;;;5.41;100.00;94455.97;5110997;27;20592;-72
2021/12/27 04:32:52;;;;;;;7.25;3.38;;;;;;;5.53;100.00;94464.63;5116469;27;20040;-71
2021/12/27 04:35:21;;;;;;;8.35;4.32;;;;;;;5.50;100.00;94459.88;5101067;27;20053;-72
2021/12/27 04:37:48;;;;;;;6.95;2.65;;;;;;;5.48;100.00;94474.78;5123382;27;20118;-73
2021/12/27 04:40:18;;;;;;;5.63;3.10;;;;;;;5.47;100.00;94475.78;5116115;27;20451;-72
2021/12/27 04:42:49;;;;;;;6.35;3.55;;;;;;;5.49;100.00;94473.81;5125017;27;20043;-71
2021/12/27 04:45:17;;;;;;;7.53;3.38;;;;;;;5.36;100.00;94469.47;5107844;27;20097;-71
2021/12/27 04:47:45;;;;;;;7.20;4.18;;;;;;;5.43;100.00;94479.78;5117056;27;20031;-71
2021/12/27 04:50:13;;;;;;;5.97;3.65;;;;;;;5.50;100.00;94474.59;5123453;27;20118;-71
2021/12/27 04:52:41;;;;;;;7.70;4.20;;;;;;;5.28;100.00;94467.16;5117226;27;20054;-71
2021/12/27 04:55:09;;;;;;;7.85;2.92;;;;;;;5.39;100.00;94483.78;5104795;28;20569;-71
2021/12/27 04:57:36;;;;;;;8.80;3.97;;;;;;;5.37;100.00;94465.13;5105062;28;20035;-71
2021/12/27 05:00:04;;;;;;;6.45;3.03;;;;;;;5.46;100.00;94452.75;5104771;27;20048;-71
2021/12/27 05:02:31;;;;;;;6.50;3.17;;;;;;;5.30;100.00;94448.88;5110361;27;20409;-71
2021/12/27 05:04:58;;;;;;;10.90;3.97;;;;;;;5.30;100.00;94469.53;5103501;28;20508;-71
2021/12/27 05:07:25;;;;;;;7.68;2.70;;;;;;;5.43;100.00;94479.78;5111507;28;20031;-71
2021/12/27 05:09:52;;;;;;;4.85;2.70;;;;;;;5.40;100.00;94487.94;5106882;28;20039;-71
2021/12/27 05:12:19;;;;;;;5.70;2.58;;;;;;;5.40;100.00;94474.22;5118350;28;20713;-71
2021/12/27 05:14:46;;;;;;;8.13;4.03;;;;;;;5.45;100.00;94471.81;5122190;28;20091;-71
2021/12/27 05:17:13;;;;;;;9.32;3.67;;;;;;;5.44;100.00;94471.03;5110968;28;20759;-72
2021/12/27 05:19:41;;;;;;;15.48;3.45;;;;;;;5.51;100.00;94476.97;5115461;28;20046;-71
2021/12/27 05:22:08;;;;;;;4.63;2.45;;;;;;;5.62;100.00;94477.28;5124268;28;20041;-71
2021/12/27 05:24:35;;;;;;;8.55;3.33;;;;;;;5.61;100.00;94480.88;5112095;28;20043;-71
2021/12/27 05:27:02;;;;;;;5.72;2.50;;;;;;;5.62;100.00;94477.28;5114582;28;20043;-71
2021/12/27 05:29:29;;;;;;;6.70;4.13;;;;;;;5.63;100.00;94471.13;5124628;28;20115;-71
2021/12/27 05:32:01;;;;;;;5.18;3.00;;;;;;;5.67;100.00;94477.44;5106714;28;20035;-71
2021/12/27 05:34:35;;;;;;;6.53;3.13;;;;;;;5.76;100.00;94473.63;5106961;28;20443;-71
2021/12/27 05:37:03;;;;;;;5.13;3.20;;;;;;;5.74;100.00;94465.28;5118854;28;20031;-71
2021/12/27 05:39:32;;;;;;;5.78;3.00;;;;;;;5.79;100.00;94478.38;5122305;28;20472;-71
2021/12/27 05:41:59;;;;;;;6.15;3.08;;;;;;;5.80;100.00;94464.47;5112207;28;20038;-71
2021/12/27 05:44:26;;;;;;;4.38;2.95;;;;;;;5.72;100.00;94464.69;5105028;28;20044;-71
2021/12/27 05:46:54;;;;;;;7.53;3.67;;;;;;;5.77;100.00;94454.53;5104732;28;20043;-72
2021/12/27 05:49:23;;;;;;;7.13;3.05;;;;;;;6.00;100.00;94477.28;5103960;28;20100;-73
2021/12/27 05:51:52;;;;;;;6.57;2.75;;;;;;;6.10;100.00;94484.53;5104275;28;20805;-72
2021/12/27 05:54:20;;;;;;;6.60;3.25;;;;;;;6.00;100.00;94455.81;5110899;28;20039;-72
2021/12/27 05:56:48;;;;;;;7.65;3.70;;;;;;;5.97;100.00;94469.16;5124675;28;20160;-72
2021/12/27 05:59:19;;;;;;;6.22;2.90;;;;;;;6.04;100.00;94481.00;5123300;28;20753;-72
2021/12/27 06:01:46;;;;;;;4.25;2.38;;;;;;;5.93;100.00;94466.94;5123444;27;20035;-72
2021/12/27 06:04:13;;;;;;;4.18;2.58;;;;;;;5.84;100.00;94470.00;5106480;27;20047;-71
2021/12/27 06:06:40;;;;;;;15.63;7.22;;;;;;;5.75;100.00;94482.38;5106113;28;20035;-72
2021/12/27 06:09:07;;;;;;;9.77;4.88;;;;;;;5.82;100.00;94467.63;5124081;27;20031;-72
2021/12/27 06:11:34;;;;;;;10.05;6.30;;;;;;;5.90;100.00;94482.84;5110701;27;20047;-72
2021/12/27 06:14:01;;;;;;;7.25;3.75;;;;;;;5.85;100.00;94471.56;5122636;27;20047;-71
2021/12/27 06:16:28;;;;;;;5.93;3.70;;;;;;;5.92;100.00;94486.06;5126654;27;20575;-72
2021/12/27 06:18:55;;;;;;;7.45;4.20;;;;;;;5.99;100.00;94467.13;5128581;27;20481;-71
2021/12/27 06:21:22;;;;;;;11.48;4.32;;;;;;;6.02;100.00;94477.06;5113618;27;20043;-71
2021/12/27 06:23:50;;;;;;;10.55;5.38;;;;;;;6.02;100.00;94492.56;5110997;27;20638;-71
2021/12/27 06:26:18;;;;;;;13.32;5.75;;;;;;;6.14;100.00;94485.72;5106582;27;20455;-71
2021/12/27 06:28:46;;;;;;;8.38;3.30;;;;;;;6.22;100.00;94477.69;5109669;27;20592;-71
2021/12/27 06:31:13;;;;;;;6.85;3.30;;;;;;;6.29;100.00;94477.63;5119396;27;20039;-71
2021/12/27 06:33:40;;;;;;;6.90;4.25;;;;;;;6.08;100.00;94464.06;5111964;27;20036;-71
2021/12/27 06:36:07;;;;;;;6.65;3.05;;;;;;;6.15;100.00;94465.81;5117936;27;20043;-71
2021/12/27 06:38:34;;;;;;;6.47;4.07;;;;;;;6.06;100.00;94478.22;5110517;27;20046;-72
2021/12/27 06:41:01;;;;;;;6.22;3.83;;;;;;;6.10;100.00;94459.50;5110799;27;20055;-72
2021/12/27 06:43:30;;;;;;;8.55;4.18;;;;;;;6.17;100.00;94454.25;5111186;27;20042;-72
2021/12/27 06:45:58;;;;;;;7.68;4.18;;;;;;;6.47;100.00;94471.69;5120416;27;20058;-72
2021/12/27 06:48:26;;;;;;;12.50;5.72;;;;;;;6.50;100.00;94471.28;5107658;27;20120;-71
2021/12/27 06:50:53;;;;;;;22.65;8.88;;;;;;;6.54;100.00;94458.72;5116784;27;20044;-71
2021/12/27 06:53:28;;;;;;;23.88;15.20;;;;;;;6.44;100.00;94441.06;5117583;27;20047;-72
2021/12/27 06:55:55;;;;;;;14.48;6.88;;;;;;;6.56;100.00;94467.81;5118430;27;20039;-71
2021/12/27 06:58:23;;;;;;;15.15;6.07;;;;;;;6.47;100.00;94449.19;5108564;27;20040;-71
2021/12/27 07:00:51;;;;;;;6.30;3.58;;;;;;;6.38;100.00;94444.53;5111932;27;20045;-71
2021/12/27 07:03:18;;;;;;;10.43;4.75;;;;;;;6.51;100.00;94475.44;5113808;27;20052;-72
2021/12/27 07:05:45;;;;;;;13.80;6.32;;;;;;;6.56;100.00;94478.19;5105835;28;20040;-71
2021/12/27 07:08:12;;;;;;;8.55;4.72;;;;;;;6.54;100.00;94464.66;5107269;27;20031;-71
2021/12/27 07:10:39;;;;;;;12.35;5.40;;;;;;;6.64;100.00;94490.81;5106034;27;20044;-71
2021/12/27 07:13:06;;;;;;;7.45;4.03;;;;;;;6.89;100.00;94498.53;5119108;27;20055;-71
2021/12/27 07:15:33;;;;;;;9.38;4.55;;;;;;;6.97;100.00;94488.91;5106064;27;20046;-71
2021/12/27 07:18:00;;;;;;;15.18;7.78;;;;;;;6.67;100.00;94464.53;5106741;28;20038;-71
2021/12/27 07:20:27;;;;;;;7.53;3.83;;;;;;;6.43;100.00;94462.78;5122840;27;20042;-71
2021/12/27 07:22:54;;;;;;;8.50;3.47;;;;;;;6.48;100.00;94450.78;5114218;27;20043;-71
2021/12/27 07:25:21;;;;;;;7.00;3.25;;;;;;;6.47;100.00;94432.91;5119496;27;20049;-71
2021/12/27 07:27:47;;;;;;;6.72;4.30;;;;;;;6.57;100.00;94430.63;5125031;27;20031;-71
2021/12/27 07:30:14;;;;;;;13.48;6.45;;;;;;;6.55;100.00;94427.41;5108502;27;20048;-71
2021/12/27 07:32:41;;;;;;;11.48;6.20;;;;;;;6.67;100.00;94417.94;5118246;27;20050;-70
2021/12/27 07:35:09;;;;;;;9.48;5.78;;;;;;;6.72;100.00;94429.44;5123402;27;20039;-72
2021/12/27 07:37:36;;;;;;;11.50;7.10;;;;;;;6.62;100.00;94435.13;5126284;27;20403;-71
2021/12/27 07:40:04;;;;;;;8.05;5.68;;;;;;;6.70;100.00;94438.22;5109410;27;20526;-70
2021/12/27 07:42:31;;;;;;;10.38;5.30;;;;;;;6.59;100.00;94436.34;5095840;27;20046;-71
2021/12/27 07:44:58;;;;;;;12.90;6.78;;;;;;;6.68;100.00;94453.19;5116574;27;20039;-71
2021/12/27 07:47:25;;;;;;;12.57;5.88;;;;;;;6.64;100.00;94449.41;5111109;27;20036;-70
2021/12/27 07:49:52;;;;;;;9.63;5.68;;;;;;;6.63;100.00;94453.03;5107380;27;20519;-70
2021/12/27 07:52:19;;;;;;;7.70;4.15;;;;;;;6.64;100.00;94457.19;5106362;27;20056;-70
2021/12/27 07:54:46;;;;;;;12.02;5.82;;;;;;;6.69;100.00;94452.16;5107713;27;20040;-70
2021/12/27 07:57:14;;;;;;;25.05;12.43;;;;;;;6.81;100.00;94456.63;5104936;27;20039;-70
2021/12/27 07:59:42;;;;;;;14.75;7.35;;;;;;;6.81;100.00;94454.03;5105127;28;20508;-71
2021/12/27 08:02:10;;;;;;;7.85;4.03;;;;;;;6.84;100.00;94458.78;5107374;27;20056;-70
2021/12/27 08:04:37;;;;;;;7.18;4.70;;;;;;;6.94;100.00;94459.06;5104751;28;20035;-71
2021/12/27 08:07:05;;;;;;;9.73;5.43;;;;;;;6.93;100.00;94452.28;5104260;27;20036;-71
2021/12/27 08:09:32;;;;;;;8.60;5.78;;;;;;;6.94;100.00;94453.88;5106995;27;20039;-71
2021/12/27 08:11:59;;;;;;;9.30;5.00;;;;;;;6.91;100.00;94459.50;5105761;28;20055;-71
2021/12/27 08:14:26;;;;;;;8.20;5.28;;;;;;;6.93;100.00;94451.50;5108621;27;20043;-71
2021/12/27 08:16:53;;;;;;;7.25;4.85;;;;;;;6.88;100.00;94447.00;5106955;28;20492;-71
2021/12/27 08:19:20;;;;;;;11.65;7.93;;;;;;;6.97;100.00;94453.47;5108146;27;20531;-72
2021/12/27 08:21:47;;;;;;;8.77;4.22;;;;;;;6.88;100.00;94444.41;5092473;27;20115;-71
2021/12/27 08:24:14;;;;;;;12.00;4.10;;;;;;;6.98;100.00;94439.50;5102875;28;20576;-71
2021/12/27 08:26:41;;;;;;;7.53;4.93;;;;;;;6.82;100.00;94440.06;5104549;27;20424;-72
2021/12/27 08:29:10;;;;;;;7.43;5.47;;;;;;;6.87;100.00;94468.69;5105350;27;20140;-72
2021/12/27 08:31:37;;;;;;;10.45;6.78;;;;;;;6.90;100.00;94457.91;5104964;28;20046;-71
2021/12/27 08:34:04;;;;;;;4.82;3.50;;;;;;;6.79;100.00;94435.31;5104704;27;20047;-72
2021/12/27 08:36:30;;;;;;;7.40;4.40;;;;;;;6.74;100.00;94430.81;5105127;28;20050;-72
2021/12/27 08:38:57;;;;;;;8.52;4.30;;;;;;;6.79;100.00;94424.97;5119860;27;20081;-72
2021/12/27 08:41:28;;;;;;;5.00;2.90;;;;;;;6.77;100.00;94427.81;5108462;27;20042;-72
2021/12/27 08:44:01;;;;;;;8.77;3.35;;;;;;;6.96;100.00;94425.97;5106232;28;20044;-72
2021/12/27 08:46:27;;;;;;;6.93;3.50;;;;;;;6.89;100.00;94425.25;5104167;28;20424;-72
2021/12/27 08:48:54;;;;;;;5.13;2.92;;;;;;;6.97;100.00;94432.75;5106555;27;20043;-72
2021/12/27 08:51:21;;;;;;;7.13;4.28;;;;;;;7.00;100.00;94421.16;5107607;28;20124;-72
2021/12/27 08:53:48;;;;;;;7.18;3.50;;;;;;;7.15;100.00;94428.53;5104361;27;20752;-70
2021/12/27 08:56:16;;;;;;;5.63;3.25;;;;;;;7.18;100.00;94428.09;5106216;27;20048;-72
2021/12/27 08:58:43;;;;;;;5.72;3.28;;;;;;;7.21;100.00;94418.09;5105596;28;20044;-72
2021/12/27 09:01:10;;;;;;;5.90;2.65;;;;;;;7.26;100.00;94409.66;5105738;27;20043;-71
2021/12/27 09:03:37;;;;;;;5.15;3.15;;;;;;;7.22;100.00;94408.50;5103539;28;20063;-71
2021/12/27 09:06:09;;;;;;;5.10;2.95;;;;;;;7.22;100.00;94398.97;5103140;28;20119;-72
2021/12/27 09:08:36;;;;;;;5.45;2.92;;;;;;;7.37;100.00;94406.31;5104301;28;20039;-72
2021/12/27 09:11:03;;;;;;;8.25;3.63;;;;;;;7.38;100.00;94384.59;5112429;28;20043;-72
2021/12/27 09:13:39;;;;;;;6.55;3.80;;;;;;;7.44;100.00;94370.75;5101868;28;20516;-72
2021/12/27 09:16:08;;;;;;;5.10;3.35;;;;;;;7.60;100.00;94374.50;5112974;28;20632;-71
2021/12/27 09:18:35;;;;;;;9.93;4.97;;;;;;;7.59;100.00;94361.75;5104663;28;20518;-72
2021/12/27 09:21:04;;;;;;;9.05;3.50;;;;;;;7.72;100.00;94386.69;5106652;28;20116;-72
2021/12/27 09:23:31;;;;;;;10.18;4.68;;;;;;;7.65;100.00;94382.41;5105318;28;20040;-72
2021/12/27 09:25:58;;;;;;;7.30;3.65;;;;;;;7.70;100.00;94399.06;5104061;28;20035;-72
2021/12/27 09:28:25;;;;;;;9.13;4.78;;;;;;;7.65;99.60;94376.41;5106205;28;20097;-73
2021/12/27 09:30:52;;;;;;;8.95;4.45;;;;;;;7.70;100.00;94381.72;5091506;28;20043;-73
2021/12/27 09:33:19;;;;;;;4.95;2.53;;;;;;;7.65;100.00;94355.66;5108003;28;20126;-73
2021/12/27 09:35:46;;;;;;;7.10;3.83;;;;;;;7.66;100.00;94352.06;5104395;28;20213;-72
2021/12/27 09:38:12;;;;;;;9.57;4.00;;;;;;;7.67;100.00;94358.84;5111089;27;20038;-72
2021/12/27 09:40:40;;;;;;;12.30;6.90;;;;;;;7.69;100.00;94356.00;5115945;27;20054;-72
2021/12/27 09:43:08;;;;;;;19.77;12.18;;;;;;;7.76;100.00;94357.50;5114185;27;20531;-73
2021/12/27 09:45:36;;;;;;;11.10;7.53;;;;;;;7.75;100.00;94349.94;5107998;28;20039;-74
2021/12/27 09:48:03;;;;;;;6.10;3.88;;;;;;;7.75;100.00;94350.72;5108700;27;20035;-73
2021/12/27 09:50:35;;;;;;;5.93;3.50;;;;;;;7.75;100.00;94358.50;5112568;27;20053;-73
2021/12/27 09:53:02;;;;;;;6.95;3.92;;;;;;;7.85;100.00;94338.00;5115231;27;20514;-72
2021/12/27 09:55:33;;;;;;;7.60;3.25;;;;;;;7.93;100.00;94336.09;5120276;27;20136;-72
2021/12/27 09:58:00;;;;;;;5.50;3.53;;;;;;;7.96;100.00;94320.06;5111005;27;20124;-73
2021/12/27 10:00:30;;;;;;;12.88;6.35;;;;;;;8.17;99.66;94349.81;5108371;27;20071;-73
2021/12/27 10:02:58;;;;;;;13.45;7.22;;;;;;;8.40;97.85;94349.00;5109882;27;20830;-72
2021/12/27 10:05:29;;;;;;;8.43;4.95;;;;;;;8.37;97.62;94336.47;5090070;27;20228;-72
2021/12/27 10:07:56;;;;;;;9.35;5.57;;;;;;;8.32;98.17;94349.34;5107147;27;20492;-73
2021/12/27 10:10:34;;;;;;;8.27;4.68;;;;;;;8.30;99.30;94320.25;5090203;28;20039;-73
2021/12/27 10:13:10;;;;;;;7.72;4.40;;;;;;;8.28;99.37;94311.91;5109545;27;20115;-73
2021/12/27 10:15:40;;;;;;;9.50;4.45;;;;;;;8.33;99.50;94299.81;5107680;27;20492;-73
2021/12/27 10:18:16;;;;;;;10.98;4.88;;;;;;;8.36;98.00;94316.75;5108665;27;20046;-73
2021/12/27 10:20:45;;;;;;;9.57;4.88;;;;;;;8.47;98.72;94321.16;5107351;27;20046;-74
2021/12/27 10:23:13;;;;;;;6.80;3.65;;;;;;;8.64;97.78;94310.03;5122737;27;20035;-72
2021/12/27 10:25:40;;;;;;;8.10;4.10;;;;;;;8.67;97.41;94307.00;5115125;27;20043;-73
2021/12/27 10:28:07;;;;;;;8.48;5.03;;;;;;;8.66;97.96;94315.78;5126314;27;20416;-73
2021/12/27 10:30:40;;;;;;;5.63;3.88;;;;;;;8.68;97.88;94329.31;5125824;27;20049;-73
2021/12/27 10:33:23;;;;;;;7.20;3.95;;;;;;;8.73;97.17;94313.84;5109240;27;20469;-73
2021/12/27 10:35:56;;;;;;;9.00;5.18;;;;;;;8.79;98.16;94328.50;5107868;27;20485;-72
2021/12/27 10:38:29;;;;;;;9.53;4.63;;;;;;;8.72;99.09;94301.91;5116011;27;20039;-72
2021/12/27 10:41:00;;;;;;;7.65;4.57;;;;;;;8.81;97.63;94310.88;5111318;27;21108;-72
2021/12/27 10:43:45;;;;;;;5.78;3.85;;;;;;;8.76;95.96;94300.41;5107170;28;20049;-73
2021/12/27 10:46:33;;;;;;;6.50;3.95;;;;;;;8.76;97.12;94319.34;5106389;28;20047;-73
2021/12/27 10:49:00;;;;;;;7.75;4.10;;;;;;;8.73;95.92;94298.25;5092901;27;20039;-72
2021/12/27 10:51:28;;;;;;;7.15;3.67;;;;;;;8.69;95.92;94291.97;5124002;27;20056;-73
2021/12/27 10:54:02;;;;;;;12.45;6.97;;;;;;;8.82;95.82;94320.22;5108334;27;20416;-72
2021/12/27 10:56:52;;;;;;;6.15;3.45;;;;;;;8.87;93.87;94311.75;5107222;27;20124;-73
2021/12/27 10:59:20;;;;;;;;;;;;;;;8.89;92.91;94333.88;5106846;28;20044;-72
2021/12/27 11:01:48;;;;;;;7.78;4.95;;;;;;;8.92;92.67;94310.03;5122966;27;19923;-73
2021/12/27 11:04:17;;;;;;;6.25;3.22;;;;;;;9.06;90.43;94327.94;5106791;27;20046;-72
2021/12/27 11:06:45;;;;;;;10.43;6.53;;;;;;;9.02;93.25;94306.84;5105308;27;20460;-73
2021/12/27 11:09:14;;;;;;;6.53;3.38;;;;;;;9.02;94.63;94298.25;5107896;27;20504;-73
2021/12/27 11:11:42;;;;;;;10.70;4.68;;;;;;;9.12;94.11;94295.84;5107043;28;20036;-72
2021/12/27 11:14:09;;;;;;;9.43;5.28;;;;;;;9.18;94.11;94305.28;5111060;27;20552;-73
2021/12/27 11:16:36;;;;;;;8.32;4.32;;;;;;;9.05;95.10;94279.59;5123170;27;20087;-72
2021/12/27 11:19:03;;;;;;;10.73;5.30;;;;;;;8.86;96.33;94271.22;5095811;27;20500;-72
2021/12/27 11:21:37;;;;;;;11.98;6.90;;;;;;;8.88;96.34;94282.97;5111734;27;20078;-72
2021/12/27 11:24:05;;;;;;;6.10;3.97;;;;;;;8.89;95.46;94279.34;5105764;28;20401;-72
2021/12/27 11:26:34;;;;;;;8.48;4.05;;;;;;;8.88;95.91;94275.19;5110465;27;20110;-72
2021/12/27 11:29:19;;;;;;;9.57;4.43;;;;;;;9.00;95.63;94272.50;5114569;27;20046;-73
2021/12/27 11:31:49;;;;;;;8.13;4.43;;;;;;;8.99;95.28;94256.13;5096940;27;20105;-72
2021/12/27 11:34:18;;;;;;;10.38;5.20;;;;;;;9.10;93.64;94269.31;5116896;27;20405;-72
2021/12/27 11:36:55;;;;;;;6.70;3.58;;;;;;;9.26;93.23;94260.72;5123088;27;20161;-73
2021/12/27 11:39:36;;;;;;;9.30;3.70;;;;;;;8.99;94.83;94250.16;5122767;27;20131;-73